createdAt,value
2018-02-15T00:01:12.674Z,4.19
2018-02-15T00:03:39.713Z,4.15
2018-02-15T00:06:06.793Z,4.13
2018-02-15T00:08:33.854Z,4.11
2018-02-15T00:11:00.917Z,4.06
2018-02-15T00:13:27.860Z,4.05
2018-02-15T00:15:55.325Z,4.08
2018-02-15T00:18:22.367Z,4.09
2018-02-15T00:20:49.435Z,4.08
2018-02-15T00:23:16.474Z,4.07
2018-02-15T00:25:43.815Z,4.03
2018-02-15T00:28:10.851Z,3.99
2018-02-15T00:30:37.927Z,3.97
2018-02-15T00:33:04.975Z,3.92
2018-02-15T00:35:32.005Z,3.91
2018-02-15T00:37:59.038Z,3.88
2018-02-15T00:40:26.082Z,3.91
2018-02-15T00:42:53.126Z,3.92
2018-02-15T00:45:20.130Z,3.91
2018-02-15T00:47:47.204Z,3.86
2018-02-15T00:50:14.285Z,3.73
2018-02-15T00:52:41.322Z,3.63
2018-02-15T00:55:08.367Z,3.53
2018-02-15T00:57:35.432Z,3.52
2018-02-15T01:00:02.550Z,3.48
2018-02-15T01:02:29.654Z,3.51
2018-02-15T01:04:56.685Z,3.48
2018-02-15T01:07:23.657Z,3.52
2018-02-15T01:09:50.705Z,3.64
2018-02-15T01:12:17.713Z,3.64
2018-02-15T01:14:44.757Z,3.60
2018-02-15T01:17:11.731Z,3.52
2018-02-15T01:19:38.793Z,3.53
2018-02-15T01:22:05.864Z,3.54
2018-02-15T01:24:32.917Z,3.54
2018-02-15T01:27:00.018Z,3.58
2018-02-15T01:29:27.047Z,3.65
2018-02-15T01:31:54.108Z,3.70
2018-02-15T01:34:21.198Z,3.63
2018-02-15T01:36:48.150Z,3.61
2018-02-15T01:39:15.164Z,3.66
2018-02-15T01:41:42.253Z,3.74
2018-02-15T01:44:09.265Z,3.73
2018-02-15T01:46:36.302Z,3.79
2018-02-15T01:49:03.318Z,3.89
2018-02-15T01:51:30.398Z,3.93
2018-02-15T01:53:57.777Z,3.94
2018-02-15T01:56:24.823Z,3.81
2018-02-15T01:58:51.881Z,3.85
2018-02-15T02:01:18.942Z,3.82
2018-02-15T02:03:45.956Z,3.84
2018-02-15T02:06:12.963Z,3.84
2018-02-15T02:08:40.033Z,3.86
2018-02-15T02:11:07.281Z,3.90
2018-02-15T02:13:34.321Z,3.91
2018-02-15T02:16:01.420Z,3.91
2018-02-15T02:18:28.457Z,4.00
2018-02-15T02:20:55.541Z,4.03
2018-02-15T02:23:22.573Z,4.12
2018-02-15T02:25:49.975Z,4.04
2018-02-15T02:28:17.049Z,3.94
2018-02-15T02:30:44.065Z,3.98
2018-02-15T02:33:11.138Z,3.98
2018-02-15T02:35:38.367Z,4.02
2018-02-15T02:38:05.360Z,4.07
2018-02-15T02:40:32.427Z,4.10
2018-02-15T02:42:59.472Z,4.15
2018-02-15T02:45:26.493Z,4.16
2018-02-15T02:47:53.503Z,4.10
2018-02-15T02:50:20.463Z,4.15
2018-02-15T02:52:47.617Z,4.19
2018-02-15T02:55:14.651Z,4.22
2018-02-15T02:57:41.677Z,4.24
2018-02-15T03:00:08.735Z,4.15
2018-02-15T03:02:35.763Z,4.15
2018-02-15T03:05:02.826Z,4.13
2018-02-15T03:07:29.918Z,4.11
2018-02-15T03:09:56.982Z,4.06
2018-02-15T03:12:24.045Z,4.09
2018-02-15T03:14:51.075Z,4.13
2018-02-15T03:17:18.140Z,4.07
2018-02-15T03:19:45.171Z,4.06
2018-02-15T03:22:12.247Z,3.98
2018-02-15T03:24:39.326Z,3.95
2018-02-15T03:27:06.546Z,3.94
2018-02-15T03:29:33.603Z,3.89
2018-02-15T03:32:00.651Z,3.90
2018-02-15T03:34:27.742Z,3.93
2018-02-15T03:36:54.995Z,3.96
2018-02-15T03:39:22.132Z,4.02
2018-02-15T03:41:49.272Z,4.06
2018-02-15T03:44:16.305Z,3.99
2018-02-15T03:46:43.337Z,3.87
2018-02-15T03:49:10.330Z,3.76
2018-02-15T03:51:37.363Z,3.73
2018-02-15T03:54:04.367Z,3.59
2018-02-15T03:56:31.436Z,3.52
2018-02-15T03:58:58.451Z,3.58
2018-02-15T04:01:25.546Z,3.56
2018-02-15T04:03:52.602Z,3.55
2018-02-15T04:06:19.639Z,3.61
2018-02-15T04:08:46.645Z,3.54
2018-02-15T04:11:13.842Z,3.53
2018-02-15T04:13:41.238Z,3.60
2018-02-15T04:16:08.254Z,3.64
2018-02-15T04:18:35.777Z,3.62
2018-02-15T04:21:02.790Z,3.64
2018-02-15T04:23:30.459Z,3.59
2018-02-15T04:25:57.584Z,3.53
2018-02-15T04:28:24.635Z,3.49
2018-02-15T04:30:51.701Z,3.52
2018-02-15T04:33:18.751Z,3.56
2018-02-15T04:35:45.790Z,3.60
2018-02-15T04:38:12.765Z,3.53
2018-02-15T04:40:39.845Z,3.60
2018-02-15T04:43:06.855Z,3.60
2018-02-15T04:45:33.866Z,3.53
2018-02-15T04:48:00.891Z,3.50
2018-02-15T04:50:27.897Z,3.57
2018-02-15T04:52:55.316Z,3.41
2018-02-15T04:55:22.332Z,3.28
2018-02-15T04:57:49.413Z,3.23
2018-02-15T05:00:16.516Z,3.27
2018-02-15T05:02:43.473Z,3.27
2018-02-15T05:05:10.464Z,3.33
2018-02-15T05:07:37.500Z,3.33
2018-02-15T05:10:04.576Z,3.29
2018-02-15T05:12:31.586Z,3.27
2018-02-15T05:14:58.736Z,3.27
2018-02-15T05:17:25.699Z,3.26
2018-02-15T05:19:52.743Z,3.26
2018-02-15T05:22:19.772Z,3.20
2018-02-15T05:24:46.820Z,3.18
2018-02-15T05:27:13.842Z,3.07
2018-02-15T05:29:40.875Z,3.07
2018-02-15T05:32:07.976Z,3.03
2018-02-15T05:34:35.018Z,3.07
2018-02-15T05:37:02.047Z,3.04
2018-02-15T05:39:29.082Z,3.07
2018-02-15T05:41:56.125Z,3.06
2018-02-15T05:44:23.302Z,3.08
2018-02-15T05:46:50.884Z,2.99
2018-02-15T05:49:17.940Z,2.98
2018-02-15T05:51:44.906Z,3.02
2018-02-15T05:54:11.980Z,3.10
2018-02-15T05:56:39.081Z,3.02
2018-02-15T05:59:06.168Z,3.02
2018-02-15T06:01:33.226Z,3.00
2018-02-15T06:04:00.315Z,3.08
2018-02-15T06:06:27.713Z,3.13
2018-02-15T06:08:54.771Z,3.27
2018-02-15T06:11:21.803Z,3.31
2018-02-15T06:13:48.810Z,3.33
2018-02-15T06:16:15.861Z,3.35
2018-02-15T06:18:42.898Z,3.50
2018-02-15T06:21:09.922Z,3.58
2018-02-15T06:23:36.976Z,3.49
2018-02-15T06:26:04.005Z,3.19
2018-02-15T06:28:31.008Z,3.15
2018-02-15T06:30:58.025Z,3.26
2018-02-15T06:33:25.099Z,3.36
2018-02-15T06:35:52.123Z,3.39
2018-02-15T06:38:19.219Z,3.31
2018-02-15T06:40:46.429Z,3.39
2018-02-15T06:43:13.415Z,3.48
2018-02-15T06:45:40.496Z,3.60
2018-02-15T06:48:07.521Z,3.55
2018-02-15T06:50:34.637Z,3.46
2018-02-15T06:53:01.726Z,3.54
2018-02-15T06:55:28.731Z,3.57
2018-02-15T06:57:55.790Z,3.47
2018-02-15T07:00:22.851Z,3.42
2018-02-15T07:02:49.990Z,3.57
2018-02-15T07:05:17.076Z,3.64
2018-02-15T07:07:44.112Z,3.61
2018-02-15T07:10:11.186Z,3.66
2018-02-15T07:12:38.228Z,3.73
2018-02-15T07:15:05.326Z,3.83
2018-02-15T07:17:32.442Z,3.78
2018-02-15T07:19:59.513Z,3.62
2018-02-15T07:22:26.589Z,3.47
2018-02-15T07:24:53.593Z,3.48
2018-02-15T07:27:20.577Z,3.53
2018-02-15T07:29:47.638Z,3.69
2018-02-15T07:32:14.705Z,3.74
2018-02-15T07:34:41.796Z,3.73
2018-02-15T07:37:08.876Z,3.74
2018-02-15T07:39:35.913Z,3.84
2018-02-15T07:42:02.931Z,3.95
2018-02-15T07:44:29.975Z,3.98
2018-02-15T07:46:57.003Z,3.98
2018-02-15T07:49:24.080Z,3.96
2018-02-15T07:51:51.094Z,3.92
2018-02-15T07:54:18.118Z,3.94
2018-02-15T07:56:45.206Z,3.99
2018-02-15T07:59:12.195Z,4.02
2018-02-15T08:01:39.239Z,4.01
2018-02-15T08:04:06.340Z,4.14
2018-02-15T08:06:33.434Z,4.19
2018-02-15T08:09:00.458Z,4.26
2018-02-15T08:11:27.516Z,4.18
2018-02-15T08:13:54.497Z,4.20
2018-02-15T08:16:21.507Z,4.13
2018-02-15T08:18:48.550Z,4.15
2018-02-15T08:21:15.616Z,4.23
2018-02-15T08:23:42.679Z,4.29
2018-02-15T08:26:09.694Z,4.27
2018-02-15T08:28:36.665Z,4.28
2018-02-15T08:31:03.790Z,4.31
2018-02-15T08:33:30.856Z,4.28
2018-02-15T08:35:57.892Z,4.34
2018-02-15T08:38:24.994Z,4.53
2018-02-15T08:40:52.195Z,4.54
2018-02-15T08:43:19.271Z,4.54
2018-02-15T08:45:46.319Z,4.59
2018-02-15T08:48:13.322Z,4.61
2018-02-15T08:50:40.373Z,4.65
2018-02-15T08:53:07.413Z,4.60
2018-02-15T08:55:34.470Z,4.59
2018-02-15T08:58:01.559Z,4.75
2018-02-15T09:00:28.618Z,4.79
2018-02-15T09:02:55.665Z,4.79
2018-02-15T09:05:22.717Z,4.79
2018-02-15T09:07:49.732Z,4.81
2018-02-15T09:10:16.818Z,4.92
2018-02-15T09:12:43.829Z,5.05
2018-02-15T09:15:10.873Z,5.14
2018-02-15T09:17:38.096Z,5.09
2018-02-15T09:20:05.155Z,4.98
2018-02-15T09:22:32.188Z,4.97
2018-02-15T09:24:59.245Z,5.08
2018-02-15T09:27:26.242Z,5.17
2018-02-15T09:29:53.362Z,5.23
2018-02-15T09:32:20.436Z,5.25
2018-02-15T09:34:47.474Z,5.18
2018-02-15T09:37:14.606Z,5.06
2018-02-15T09:39:41.631Z,5.03
2018-02-15T09:42:08.637Z,5.02
2018-02-15T09:44:35.665Z,5.00
2018-02-15T09:47:02.655Z,4.92
2018-02-15T09:49:29.695Z,5.02
2018-02-15T09:51:56.697Z,5.12
2018-02-15T09:54:23.712Z,5.17
2018-02-15T09:56:50.716Z,5.18
2018-02-15T09:59:18.111Z,5.23
2018-02-15T10:01:45.108Z,5.15
2018-02-15T10:04:12.105Z,5.13
2018-02-15T10:06:39.730Z,5.00
2018-02-15T10:09:06.744Z,5.09
2018-02-15T10:11:33.698Z,5.28
2018-02-15T10:14:00.699Z,5.37
2018-02-15T10:16:27.749Z,5.41
2018-02-15T10:18:55.011Z,5.39
2018-02-15T10:21:22.090Z,5.45
2018-02-15T10:23:49.112Z,5.45
2018-02-15T10:26:16.144Z,5.48
2018-02-15T10:28:43.274Z,5.53
2018-02-15T10:31:10.286Z,5.65
2018-02-15T10:33:37.326Z,5.71
2018-02-15T10:36:04.341Z,5.66
2018-02-15T10:38:31.429Z,5.72
2018-02-15T10:40:58.487Z,5.73
2018-02-15T10:43:25.576Z,5.73
2018-02-15T10:45:52.665Z,5.71
2018-02-15T10:48:19.673Z,5.81
2018-02-15T10:50:46.734Z,5.98
2018-02-15T10:53:13.804Z,6.14
2018-02-15T10:55:40.888Z,6.14
2018-02-15T10:58:07.935Z,6.24
2018-02-15T11:00:40.546Z,6.38
2018-02-15T11:03:13.292Z,6.34
2018-02-15T11:05:40.362Z,6.24
2018-02-15T11:08:07.392Z,6.23
2018-02-15T11:10:34.417Z,6.38
2018-02-15T11:13:01.458Z,6.37
2018-02-15T11:15:28.564Z,6.35
2018-02-15T11:17:55.637Z,6.45
2018-02-15T11:20:22.699Z,6.50
2018-02-15T11:22:49.708Z,6.54
2018-02-15T11:25:16.774Z,6.59
2018-02-15T11:27:43.802Z,6.66
2018-02-15T11:30:10.944Z,6.72
2018-02-15T11:32:38.207Z,6.62
2018-02-15T11:35:05.207Z,6.57
2018-02-15T11:37:32.446Z,6.55
2018-02-15T11:39:59.511Z,6.61
2018-02-15T11:42:26.531Z,6.61
2018-02-15T11:44:53.491Z,6.74
2018-02-15T11:47:20.704Z,6.84
2018-02-15T11:49:47.767Z,6.91
2018-02-15T11:52:14.804Z,6.95
2018-02-15T11:54:41.852Z,7.08
2018-02-15T11:57:08.870Z,7.24
2018-02-15T11:59:35.918Z,7.45
2018-02-15T12:02:03.200Z,7.45
2018-02-15T12:04:30.218Z,7.46
2018-02-15T12:06:57.246Z,7.57
2018-02-15T12:09:24.331Z,7.78
2018-02-15T12:11:51.410Z,7.79
2018-02-15T12:14:18.466Z,7.61
2018-02-15T12:16:45.532Z,7.56
2018-02-15T12:19:12.610Z,7.38
2018-02-15T12:21:39.652Z,7.53
2018-02-15T12:24:06.669Z,7.60
2018-02-15T12:26:33.758Z,7.67
2018-02-15T12:29:00.717Z,7.49
2018-02-15T12:31:27.699Z,7.44
2018-02-15T12:33:54.651Z,7.43
2018-02-15T12:36:21.666Z,7.45
2018-02-15T12:38:48.685Z,7.57
2018-02-15T12:41:15.702Z,7.72
2018-02-15T12:43:42.737Z,7.62
2018-02-15T12:46:09.752Z,7.63
2018-02-15T12:48:36.867Z,7.53
2018-02-15T12:51:03.879Z,7.50
2018-02-15T12:53:32.373Z,7.55
2018-02-15T12:55:59.467Z,7.69
2018-02-15T12:58:26.524Z,7.84
2018-02-15T13:00:53.581Z,7.94
2018-02-15T13:03:20.589Z,7.82
2018-02-15T13:05:47.642Z,7.91
2018-02-15T13:08:14.747Z,7.99
2018-02-15T13:10:41.765Z,7.96
2018-02-15T13:13:14.706Z,7.89
2018-02-15T13:15:47.529Z,7.88
2018-02-15T13:18:14.550Z,7.91
2018-02-15T13:20:41.527Z,7.84
2018-02-15T13:23:08.552Z,7.76
2018-02-15T13:25:35.580Z,7.78
2018-02-15T13:28:08.470Z,7.77
2018-02-15T13:30:35.576Z,7.79
2018-02-15T13:33:02.649Z,7.78
2018-02-15T13:35:29.686Z,7.78
2018-02-15T13:37:56.734Z,7.82
2018-02-15T13:40:23.786Z,7.82
2018-02-15T13:42:51.282Z,7.79
2018-02-15T13:45:18.325Z,7.81
2018-02-15T13:47:45.396Z,7.81
2018-02-15T13:50:12.442Z,7.91
2018-02-15T13:52:39.415Z,7.95
2018-02-15T13:55:06.511Z,7.88
2018-02-15T13:57:33.526Z,7.87
2018-02-15T14:00:00.583Z,7.75
2018-02-15T14:02:27.641Z,7.76
2018-02-15T14:04:54.697Z,7.77
2018-02-15T14:07:21.777Z,7.80
2018-02-15T14:09:48.794Z,7.83
2018-02-15T14:12:15.806Z,7.85
2018-02-15T14:14:42.871Z,7.96
2018-02-15T14:17:09.931Z,8.09
2018-02-15T14:19:36.954Z,7.96
2018-02-15T14:22:04.578Z,7.84
2018-02-15T14:24:31.653Z,7.91
2018-02-15T14:26:59.290Z,8.05
2018-02-15T14:29:26.385Z,7.93
2018-02-15T14:31:53.437Z,8.04
2018-02-15T14:34:20.530Z,8.15
2018-02-15T14:36:47.585Z,8.34
2018-02-15T14:39:14.592Z,8.44
2018-02-15T14:41:41.770Z,8.40
2018-02-15T14:44:08.773Z,8.49
2018-02-15T14:46:35.890Z,8.37
2018-02-15T14:49:03.484Z,8.33
2018-02-15T14:51:30.532Z,8.41
2018-02-15T14:53:57.576Z,8.29
2018-02-15T14:56:24.581Z,8.36
2018-02-15T14:58:51.836Z,8.38
2018-02-15T15:01:18.843Z,8.33
2018-02-15T15:03:45.886Z,8.29
2018-02-15T15:06:12.945Z,8.28
2018-02-15T15:08:39.991Z,8.31
2018-02-15T15:11:07.004Z,8.33
2018-02-15T15:13:34.137Z,8.40
2018-02-15T15:16:01.259Z,8.40
2018-02-15T15:18:28.288Z,8.32
2018-02-15T15:20:55.308Z,8.27
2018-02-15T15:23:22.346Z,8.34
2018-02-15T15:25:49.418Z,8.24
2018-02-15T15:28:16.438Z,8.17
2018-02-15T15:30:43.475Z,8.29
2018-02-15T15:33:10.532Z,8.28
2018-02-15T15:35:37.580Z,8.25
2018-02-15T15:38:04.612Z,8.25
2018-02-15T15:40:31.631Z,8.20
2018-02-15T15:42:58.846Z,8.18
2018-02-15T15:45:25.918Z,8.22
2018-02-15T15:47:52.938Z,8.26
2018-02-15T15:50:19.944Z,8.25
2018-02-15T15:52:47.033Z,8.32
2018-02-15T15:55:14.070Z,8.33
2018-02-15T15:57:41.163Z,8.21
2018-02-15T16:00:08.145Z,8.11
2018-02-15T16:02:35.242Z,8.13
2018-02-15T16:05:02.273Z,8.16
2018-02-15T16:07:29.295Z,8.24
2018-02-15T16:09:56.377Z,8.21
2018-02-15T16:12:23.450Z,8.11
2018-02-15T16:14:50.483Z,8.09
2018-02-15T16:17:17.897Z,8.08
2018-02-15T16:19:44.968Z,7.99
2018-02-15T16:22:12.019Z,7.99
2018-02-15T16:24:39.441Z,8.04
2018-02-15T16:27:06.573Z,7.94
2018-02-15T16:29:33.619Z,7.92
2018-02-15T16:32:00.632Z,7.98
2018-02-15T16:34:27.701Z,8.00
2018-02-15T16:36:54.667Z,7.98
2018-02-15T16:39:21.696Z,7.98
2018-02-15T16:41:48.826Z,8.03
2018-02-15T16:44:15.874Z,8.04
2018-02-15T16:46:42.849Z,8.01
2018-02-15T16:49:09.901Z,7.96
2018-02-15T16:51:37.041Z,7.93
2018-02-15T16:54:04.194Z,7.89
2018-02-15T16:56:31.231Z,7.92
2018-02-15T16:58:58.321Z,7.94
2018-02-15T17:01:26.012Z,7.89
2018-02-15T17:03:53.194Z,7.84
2018-02-15T17:06:20.264Z,7.83
2018-02-15T17:08:47.335Z,7.85
2018-02-15T17:11:15.042Z,7.94
2018-02-15T17:13:42.043Z,7.94
2018-02-15T17:16:09.115Z,7.98
2018-02-15T17:18:36.355Z,7.98
2018-02-15T17:21:03.430Z,7.94
2018-02-15T17:23:30.390Z,7.94
2018-02-15T17:25:57.688Z,7.99
2018-02-15T17:28:24.719Z,8.00
2018-02-15T17:30:51.760Z,8.00
2018-02-15T17:33:19.208Z,7.94
2018-02-15T17:35:46.256Z,7.87
2018-02-15T17:38:13.487Z,7.81
2018-02-15T17:40:40.477Z,7.81
2018-02-15T17:43:07.985Z,7.77
2018-02-15T17:45:35.022Z,7.75
2018-02-15T17:48:02.052Z,7.80
2018-02-15T17:50:29.130Z,7.82
2018-02-15T17:52:56.469Z,7.81
2018-02-15T17:55:23.452Z,7.83
2018-02-15T17:57:50.530Z,7.88
2018-02-15T18:00:17.593Z,7.87
2018-02-15T18:02:44.648Z,7.79
2018-02-15T18:05:11.649Z,7.72
2018-02-15T18:07:38.653Z,7.71
2018-02-15T18:10:05.697Z,7.78
2018-02-15T18:12:32.765Z,7.83
2018-02-15T18:14:59.792Z,7.86
2018-02-15T18:17:26.889Z,7.87
2018-02-15T18:19:53.901Z,7.85
2018-02-15T18:22:20.906Z,7.86
2018-02-15T18:24:48.029Z,7.88
2018-02-15T18:27:15.085Z,7.93
2018-02-15T18:29:42.068Z,7.97
2018-02-15T18:32:09.116Z,8.00
2018-02-15T18:34:36.124Z,7.93
2018-02-15T18:37:03.234Z,7.88
2018-02-15T18:39:30.313Z,7.88
2018-02-15T18:41:57.363Z,7.83
2018-02-15T18:44:24.379Z,7.82
2018-02-15T18:46:51.443Z,7.85
2018-02-15T18:49:18.505Z,7.84
2018-02-15T18:51:45.579Z,7.81
2018-02-15T18:54:12.626Z,7.87
2018-02-15T18:56:39.644Z,7.86
2018-02-15T18:59:07.466Z,7.90
2018-02-15T19:01:34.485Z,7.93
2018-02-15T19:04:01.569Z,7.94
2018-02-15T19:06:28.540Z,7.95
2018-02-15T19:08:55.629Z,7.98
2018-02-15T19:11:22.653Z,8.04
2018-02-15T19:13:49.702Z,8.09
2018-02-15T19:16:16.719Z,7.99
2018-02-15T19:18:43.731Z,7.96
2018-02-15T19:21:10.792Z,7.98
2018-02-15T19:23:37.807Z,7.98
2018-02-15T19:26:04.914Z,7.98
2018-02-15T19:28:32.004Z,8.01
2018-02-15T19:30:58.992Z,8.01
2018-02-15T19:33:26.177Z,7.98
2018-02-15T19:35:53.301Z,7.97
2018-02-15T19:38:20.350Z,7.99
2018-02-15T19:40:47.451Z,7.92
2018-02-15T19:43:14.494Z,7.90
2018-02-15T19:45:41.580Z,7.95
2018-02-15T19:48:08.597Z,8.04
2018-02-15T19:50:35.686Z,8.02
2018-02-15T19:53:02.785Z,8.02
2018-02-15T19:55:29.949Z,8.07
2018-02-15T19:57:56.990Z,8.12
2018-02-15T20:00:24.062Z,8.11
2018-02-15T20:02:51.120Z,8.07
2018-02-15T20:05:18.154Z,8.04
2018-02-15T20:07:45.190Z,7.94
2018-02-15T20:10:12.191Z,7.91
2018-02-15T20:12:39.268Z,7.90
2018-02-15T20:15:06.340Z,7.94
2018-02-15T20:17:33.399Z,8.02
2018-02-15T20:20:06.107Z,8.07
2018-02-15T20:22:33.359Z,8.10
2018-02-15T20:25:00.532Z,8.13
2018-02-15T20:27:33.185Z,8.10
2018-02-15T20:30:00.266Z,8.12
2018-02-15T20:32:27.294Z,8.14
2018-02-15T20:34:54.375Z,8.16
2018-02-15T20:37:21.474Z,8.22
2018-02-15T20:39:54.260Z,8.30
2018-02-15T20:44:54.584Z,8.25
2018-02-15T20:47:21.652Z,8.28
2018-02-15T20:49:54.337Z,8.33
2018-02-15T20:52:26.958Z,8.28
2018-02-15T20:54:59.492Z,8.30
2018-02-15T20:57:26.609Z,8.39
2018-02-15T20:59:53.705Z,8.39
2018-02-15T21:02:20.725Z,8.40
2018-02-15T21:04:47.765Z,8.43
2018-02-15T21:07:14.809Z,8.46
2018-02-15T21:09:41.920Z,8.47
2018-02-15T21:12:09.014Z,8.45
2018-02-15T21:14:37.643Z,8.40
2018-02-15T21:17:04.768Z,8.35
2018-02-15T21:19:31.847Z,8.31
2018-02-15T21:21:58.877Z,8.34
2018-02-15T21:24:26.178Z,8.40
2018-02-15T21:26:53.244Z,8.38
2018-02-15T21:29:20.377Z,8.43
2018-02-15T21:31:47.408Z,8.45
2018-02-15T21:34:14.487Z,8.43
2018-02-15T21:36:44.356Z,8.45
2018-02-15T21:39:11.416Z,8.44
2018-02-15T21:41:38.515Z,8.45
2018-02-15T21:44:05.554Z,8.51
2018-02-15T21:46:32.644Z,8.55
2018-02-15T21:48:59.705Z,8.52
2018-02-15T21:51:26.715Z,8.54
2018-02-15T21:53:53.724Z,8.59
2018-02-15T21:56:20.770Z,8.66
2018-02-15T21:58:47.815Z,8.70
2018-02-15T22:01:15.134Z,8.75
2018-02-15T22:03:42.179Z,8.66
2018-02-15T22:06:09.216Z,8.59
2018-02-15T22:08:36.704Z,8.59
2018-02-15T22:11:03.737Z,8.61
2018-02-15T22:13:30.782Z,8.57
2018-02-15T22:15:57.798Z,8.58
2018-02-15T22:18:24.752Z,8.62
2018-02-15T22:20:51.829Z,8.64
2018-02-15T22:23:18.811Z,8.65
2018-02-15T22:25:45.888Z,8.65
2018-02-15T22:28:12.859Z,8.61
2018-02-15T22:30:39.882Z,8.57
2018-02-15T22:33:06.853Z,8.56
2018-02-15T22:35:33.901Z,8.52
2018-02-15T22:38:00.929Z,8.51
2018-02-15T22:40:27.988Z,8.48
2018-02-15T22:42:55.083Z,8.48
2018-02-15T22:45:22.183Z,8.46
2018-02-15T22:47:49.198Z,8.43
2018-02-15T22:50:16.262Z,8.48
2018-02-15T22:52:43.325Z,8.50
2018-02-15T22:55:10.361Z,8.57
2018-02-15T22:57:37.347Z,8.59
2018-02-15T23:00:04.401Z,8.54
2018-02-15T23:02:31.456Z,8.51
2018-02-15T23:04:58.524Z,8.53
2018-02-15T23:07:25.836Z,8.55
2018-02-15T23:09:52.858Z,8.54
2018-02-15T23:12:20.018Z,8.59
2018-02-15T23:14:47.080Z,8.58
2018-02-15T23:17:14.147Z,8.59
2018-02-15T23:19:41.178Z,8.59
2018-02-15T23:22:08.163Z,8.60
2018-02-15T23:24:35.382Z,8.60
2018-02-15T23:27:02.362Z,8.70
2018-02-15T23:29:29.372Z,8.74
2018-02-15T23:31:56.384Z,8.80
2018-02-15T23:34:23.429Z,8.85
2018-02-15T23:36:50.508Z,8.84
2018-02-15T23:39:17.551Z,8.85
2018-02-15T23:41:44.513Z,8.86
2018-02-15T23:44:11.602Z,8.91
2018-02-15T23:46:38.573Z,8.98
2018-02-15T23:49:05.650Z,8.95
2018-02-15T23:51:32.695Z,8.98
2018-02-15T23:53:59.728Z,8.98
2018-02-15T23:56:26.776Z,8.98
2018-02-15T23:58:53.789Z,9.02
